Terminal Aerodrome Forecast
Issued by NWS Columbia, SC

Home | Current Version | Previous Version | Text Only | Print | Product List | Glossary On
Versions: 1 2 3 4 5 6 7 8 9 10 11 12 13 14 15 16 17 18 19 20 21 22 23 24 25 26 27 28
000
FTUS42 KCAE 042051 AAB
TAFCAE
TAF AMD
KCAE 042051Z 0421/0518 06006KT 6SM -RA OVC030
     FM050000 07006KT 5SM -RA BR OVC020
     FM050200 05005KT 3SM -RA BR OVC008 WS020/18028KT
     FM051100 36003KT 3SM -RA BR OVC008=

USA.gov is the U.S. government's official web portal to all federal, state and local government web resources and services.